Time;durP1;ratioP1;P1;durP2;ratioP2;P2;SDS_P1;SDS_P2;PMS_P1;PMS_P2;Temp;Humidity;BMP_temperature;BMP_pressure;BME280_temperature;BME280_humidity;BME280_pressure;Samples;Min_cycle;Max_cycle;Signal;HPM_P1;HPM_P2
2022/03/04 00:01:27;;;;;;;102.50;62.70;;;;;;;-0.23;80.95;99080.69;105270;1270;62004;-76
2022/03/04 00:03:53;;;;;;;108.70;65.70;;;;;;;-0.20;81.02;99086.41;105209;1270;75129;-78
2022/03/04 00:06:20;;;;;;;114.40;66.00;;;;;;;-0.19;80.99;99084.80;105290;1270;69229;-77
2022/03/04 00:08:46;;;;;;;114.50;67.10;;;;;;;-0.18;81.03;99082.17;105241;1270;61353;-77
2022/03/04 00:11:13;;;;;;;115.10;68.60;;;;;;;-0.16;81.05;99078.63;105283;1270;61384;-75
2022/03/04 00:13:40;;;;;;;112.60;68.60;;;;;;;-0.16;81.05;99087.17;105277;1270;61270;-77
2022/03/04 00:16:07;;;;;;;106.50;66.10;;;;;;;-0.15;81.00;99084.89;105296;1269;75196;-77
2022/03/04 00:18:33;;;;;;;112.10;65.60;;;;;;;-0.18;80.93;99087.77;105284;1270;61188;-77
2022/03/04 00:21:02;;;;;;;112.70;67.30;;;;;;;-0.22;80.95;99084.87;105253;1270;73641;-77
2022/03/04 00:23:29;;;;;;;109.50;66.90;;;;;;;-0.24;81.03;99085.61;105370;1270;61269;-75
2022/03/04 00:25:55;;;;;;;104.50;63.50;;;;;;;-0.26;81.10;99086.00;105273;1269;61745;-77
2022/03/04 00:28:22;;;;;;;108.50;61.30;;;;;;;-0.28;80.94;99085.36;105290;1269;76268;-77
2022/03/04 00:30:48;;;;;;;100.80;60.80;;;;;;;-0.31;81.07;99085.43;105264;1270;61292;-77
2022/03/04 00:33:15;;;;;;;97.80;60.00;;;;;;;-0.34;81.18;99084.08;105294;1270;61295;-74
2022/03/04 00:35:41;;;;;;;96.30;57.30;;;;;;;-0.37;80.95;99083.64;105265;1270;61311;-78
2022/03/04 00:38:07;;;;;;;95.40;56.70;;;;;;;-0.40;80.71;99079.84;105276;1269;61330;-76
2022/03/04 00:40:34;;;;;;;91.40;53.10;;;;;;;-0.41;80.58;99081.96;105317;1270;61335;-77
2022/03/04 00:43:02;;;;;;;86.90;50.00;;;;;;;-0.42;80.20;99079.02;105260;1270;68517;-79
2022/03/04 00:45:28;;;;;;;85.00;51.80;;;;;;;-0.43;80.10;99083.40;105346;1270;73465;-80
2022/03/04 00:47:55;;;;;;;81.70;48.90;;;;;;;-0.45;79.92;99079.95;105278;1270;61388;-77
2022/03/04 00:50:21;;;;;;;80.60;50.80;;;;;;;-0.46;79.90;99080.30;105296;1270;61274;-77
2022/03/04 00:52:48;;;;;;;86.80;51.70;;;;;;;-0.47;79.71;99079.64;104957;1269;455774;-79
2022/03/04 00:55:15;;;;;;;80.00;47.90;;;;;;;-0.48;79.53;99073.89;105265;1269;69211;-77
2022/03/04 00:57:41;;;;;;;77.80;47.20;;;;;;;-0.50;79.32;99076.39;105269;1270;74511;-77
2022/03/04 01:00:08;;;;;;;77.60;45.70;;;;;;;-0.50;78.86;99075.34;105237;1269;61413;-76
2022/03/04 01:02:34;;;;;;;78.60;45.20;;;;;;;-0.52;78.67;99075.55;104523;1270;1003650;-76
2022/03/04 01:05:01;;;;;;;70.60;43.80;;;;;;;-0.54;78.64;99074.20;105241;1270;61113;-76
2022/03/04 01:07:27;;;;;;;61.20;39.60;;;;;;;-0.54;78.49;99072.48;105289;1269;69148;-77
2022/03/04 01:09:54;;;;;;;58.10;37.00;;;;;;;-0.56;78.09;99073.91;105314;1269;73615;-77
2022/03/04 01:12:21;;;;;;;58.50;37.10;;;;;;;-0.59;78.00;99075.18;105001;1270;61387;-77
2022/03/04 01:14:47;;;;;;;59.00;35.60;;;;;;;-0.60;77.70;99077.30;105276;1270;61518;-77
2022/03/04 01:17:14;;;;;;;64.40;38.30;;;;;;;-0.62;77.60;99073.49;105308;1270;61301;-76
2022/03/04 01:19:40;;;;;;;58.20;35.60;;;;;;;-0.64;77.70;99077.02;105260;1269;61318;-76
2022/03/04 01:22:06;;;;;;;63.00;38.50;;;;;;;-0.66;77.68;99081.08;105240;1270;61299;-75
2022/03/04 01:24:33;;;;;;;57.70;36.60;;;;;;;-0.67;77.63;99076.04;105266;1270;61377;-76
2022/03/04 01:26:59;;;;;;;58.60;36.30;;;;;;;-0.67;77.66;99074.46;105245;1270;61179;-76
2022/03/04 01:29:26;;;;;;;54.50;34.80;;;;;;;-0.69;77.70;99072.05;105253;1270;61378;-79
2022/03/04 01:31:52;;;;;;;52.90;33.70;;;;;;;-0.70;77.71;99072.09;105255;1269;61319;-76
2022/03/04 01:34:19;;;;;;;54.30;34.70;;;;;;;-0.70;77.73;99075.92;105240;1269;61333;-76
2022/03/04 01:36:45;;;;;;;55.70;35.30;;;;;;;-0.71;77.72;99070.70;105287;1270;61362;-77
2022/03/04 01:39:12;;;;;;;51.20;34.60;;;;;;;-0.71;77.70;99064.08;105267;1270;61338;-76
2022/03/04 01:41:38;;;;;;;59.40;38.20;;;;;;;-0.73;77.81;99069.88;105241;1270;61382;-77
2022/03/04 01:44:05;;;;;;;56.40;35.50;;;;;;;-0.73;77.80;99065.34;105314;1269;61395;-77
2022/03/04 01:46:33;;;;;;;52.00;35.50;;;;;;;-0.73;77.88;99066.56;104918;1270;74407;-77
2022/03/04 01:48:59;;;;;;;54.00;35.20;;;;;;;-0.72;77.82;99065.68;105241;1270;61314;-78
2022/03/04 01:51:26;;;;;;;55.10;36.00;;;;;;;-0.73;77.83;99066.20;105247;1270;61199;-76
2022/03/04 01:53:52;;;;;;;54.90;34.30;;;;;;;-0.72;77.90;99063.91;105294;1270;61381;-76
2022/03/04 01:56:19;;;;;;;59.10;35.00;;;;;;;-0.71;77.97;99066.17;105227;1268;69166;-78
2022/03/04 01:58:46;;;;;;;56.20;35.60;;;;;;;-0.71;77.87;99057.80;105249;1270;73268;-76
2022/03/04 02:01:12;;;;;;;50.80;34.00;;;;;;;-0.72;77.86;99044.89;105279;1269;61291;-77
2022/03/04 02:03:39;;;;;;;48.90;32.20;;;;;;;-0.72;78.22;99034.62;105271;1270;61279;-79
2022/03/04 02:06:05;;;;;;;55.00;33.80;;;;;;;-0.74;78.33;99031.70;105119;1271;61443;-76
2022/03/04 02:08:32;;;;;;;53.00;34.80;;;;;;;-0.76;78.32;99038.20;104598;1268;1003147;-75
2022/03/04 02:10:58;;;;;;;57.00;35.50;;;;;;;-0.78;78.23;99042.59;105263;1270;61375;-77
2022/03/04 02:13:25;;;;;;;56.00;36.90;;;;;;;-0.79;78.26;99042.63;103813;1270;1003827;-76
2022/03/04 02:15:51;;;;;;;58.70;36.60;;;;;;;-0.78;78.37;99043.66;105312;1270;61154;-78
2022/03/04 02:18:18;;;;;;;54.80;34.10;;;;;;;-0.78;78.20;99044.02;105215;1270;61138;-78
2022/03/04 02:20:48;;;;;;;50.80;33.60;;;;;;;-0.78;78.32;99042.42;105228;1270;61243;-78
2022/03/04 02:23:16;;;;;;;50.70;34.00;;;;;;;-0.76;78.35;99043.63;105299;1269;74569;-77
2022/03/04 02:25:48;;;;;;;53.70;35.20;;;;;;;-0.76;78.28;99049.71;105248;1270;61229;-78
2022/03/04 02:28:15;;;;;;;55.90;35.70;;;;;;;-0.77;78.33;99053.23;105292;1270;61250;-77
2022/03/04 02:30:42;;;;;;;53.60;36.70;;;;;;;-0.78;78.39;99057.44;105342;1269;74152;-78
2022/03/04 02:33:09;;;;;;;62.30;40.30;;;;;;;-0.78;78.47;99057.60;105269;1270;69151;-76
2022/03/04 02:35:37;;;;;;;61.40;38.50;;;;;;;-0.78;78.74;99060.90;105257;1270;73504;-77
2022/03/04 02:38:04;;;;;;;60.60;38.00;;;;;;;-0.79;78.79;99064.25;105287;1270;61421;-77
2022/03/04 02:40:31;;;;;;;61.30;39.80;;;;;;;-0.80;79.02;99067.56;105272;1270;61252;-78
2022/03/04 02:42:58;;;;;;;66.90;40.70;;;;;;;-0.81;79.18;99069.87;105307;1270;75212;-75
2022/03/04 02:45:25;;;;;;;68.90;42.40;;;;;;;-0.82;79.17;99068.31;105309;1270;69254;-76
2022/03/04 02:47:52;;;;;;;62.30;40.10;;;;;;;-0.84;79.19;99072.03;105266;1270;73178;-76
2022/03/04 02:50:19;;;;;;;61.60;39.40;;;;;;;-0.85;79.27;99079.38;104947;1270;61769;-77
2022/03/04 02:52:46;;;;;;;64.00;38.80;;;;;;;-0.86;79.48;99078.00;105337;1270;61864;-78
2022/03/04 02:55:12;;;;;;;65.50;42.90;;;;;;;-0.89;79.53;99081.70;105019;1270;76149;-77
2022/03/04 02:57:43;;;;;;;59.50;38.30;;;;;;;-0.89;79.60;99083.80;105320;1270;68074;-78
2022/03/04 03:00:40;;;;;;;69.20;43.60;;;;;;;-0.90;79.64;99082.41;105271;1270;74734;-77
2022/03/04 03:03:07;;;;;;;64.40;40.20;;;;;;;-0.91;79.71;99084.36;105328;1270;61317;-77
2022/03/04 03:05:34;;;;;;;67.00;41.00;;;;;;;-0.92;79.70;99081.42;105394;1270;61436;-78
2022/03/04 03:08:00;;;;;;;59.50;38.90;;;;;;;-0.92;79.76;99083.00;105300;1268;61314;-78
2022/03/04 03:10:27;;;;;;;68.40;41.50;;;;;;;-0.92;79.86;99087.00;105286;1270;61305;-77
2022/03/04 03:12:53;;;;;;;62.00;39.80;;;;;;;-0.92;79.71;99087.18;105287;1270;61299;-78
2022/03/04 03:15:19;;;;;;;67.10;40.50;;;;;;;-0.91;79.73;99090.30;105261;1270;61371;-77
2022/03/04 03:17:46;;;;;;;64.50;40.30;;;;;;;-0.91;79.76;99087.15;105421;1269;61352;-76
2022/03/04 03:20:12;;;;;;;65.90;41.60;;;;;;;-0.91;79.79;99088.20;105321;1270;61279;-76
2022/03/04 03:22:39;;;;;;;64.10;42.20;;;;;;;-0.90;79.69;99092.20;105371;1270;61193;-77
2022/03/04 03:25:07;;;;;;;65.40;40.50;;;;;;;-0.91;79.69;99089.23;105472;1270;61284;-77
2022/03/04 03:27:34;;;;;;;67.20;42.50;;;;;;;-0.90;79.87;99098.47;106409;1269;61182;-77
2022/03/04 03:30:01;;;;;;;63.40;40.90;;;;;;;-0.89;79.80;99099.50;106552;1270;61573;-77
2022/03/04 03:32:28;;;;;;;56.60;36.30;;;;;;;-0.89;79.83;99099.67;105243;1270;75388;-73
2022/03/04 03:34:54;;;;;;;65.90;39.10;;;;;;;-0.90;79.76;99100.19;105263;1270;69138;-77
2022/03/04 03:37:21;;;;;;;62.90;39.80;;;;;;;-0.90;79.77;99100.91;105287;1270;61285;-76
2022/03/04 03:39:48;;;;;;;55.80;36.00;;;;;;;-0.90;79.79;99098.98;105288;1270;61250;-78
2022/03/04 03:42:14;;;;;;;56.40;35.60;;;;;;;-0.90;79.76;99099.52;104572;1270;1002990;-77
2022/03/04 03:44:41;;;;;;;62.90;37.60;;;;;;;-0.89;79.73;99102.82;105292;1270;74522;-76
2022/03/04 03:47:09;;;;;;;58.50;37.80;;;;;;;-0.88;79.81;99104.90;105300;1270;69091;-77
2022/03/04 03:49:37;;;;;;;57.50;38.00;;;;;;;-0.89;79.78;99102.98;105317;1270;73221;-76
2022/03/04 03:52:05;;;;;;;53.10;35.50;;;;;;;-0.88;79.70;99103.30;105300;1270;61254;-76
2022/03/04 03:54:32;;;;;;;57.40;36.20;;;;;;;-0.87;79.72;99107.12;105308;1270;61242;-78
2022/03/04 03:56:58;;;;;;;56.80;35.90;;;;;;;-0.86;79.78;99103.29;105314;1270;76239;-76
2022/03/04 03:59:25;;;;;;;51.70;33.00;;;;;;;-0.85;79.74;99106.74;105292;1270;61423;-77
2022/03/04 04:01:51;;;;;;;56.10;34.70;;;;;;;-0.85;79.89;99106.58;105333;1270;61352;-77
2022/03/04 04:04:17;;;;;;;52.80;35.80;;;;;;;-0.86;79.65;99105.39;105256;1270;61406;-78
2022/03/04 04:06:45;;;;;;;62.70;39.10;;;;;;;-0.87;79.80;99103.65;105371;1269;61236;-77
2022/03/04 04:09:11;;;;;;;56.90;36.70;;;;;;;-0.87;79.91;99105.91;105263;1270;75630;-79
2022/03/04 04:11:39;;;;;;;54.20;35.10;;;;;;;-0.87;79.82;99104.01;105304;1270;69671;-77
2022/03/04 04:14:07;;;;;;;52.70;34.50;;;;;;;-0.88;79.83;99100.52;105228;1270;72665;-76
2022/03/04 04:16:34;;;;;;;47.20;32.40;;;;;;;-0.88;79.88;99098.77;104514;1269;1003085;-76
2022/03/04 04:19:01;;;;;;;50.10;33.60;;;;;;;-0.88;79.96;99101.92;105273;1270;61259;-76
2022/03/04 04:21:28;;;;;;;52.80;36.30;;;;;;;-0.89;79.93;99099.31;105309;1270;75215;-77
2022/03/04 04:23:56;;;;;;;51.10;34.10;;;;;;;-0.89;80.01;99103.86;105037;1270;68546;-77
2022/03/04 04:26:23;;;;;;;48.60;31.80;;;;;;;-0.90;79.96;99108.04;105311;1270;72559;-76
2022/03/04 04:28:51;;;;;;;53.40;34.00;;;;;;;-0.90;80.02;99108.59;105231;1270;61375;-76
2022/03/04 04:31:17;;;;;;;58.30;34.30;;;;;;;-0.90;79.97;99106.31;105265;1270;61365;-78
2022/03/04 04:33:54;;;;;;;51.20;34.10;;;;;;;-0.91;80.05;99107.37;105278;1270;76213;-76
2022/03/04 04:36:21;;;;;;;52.10;33.90;;;;;;;-0.90;80.14;99112.42;105260;1270;61331;-77
2022/03/04 04:38:47;;;;;;;49.70;33.60;;;;;;;-0.90;80.19;99111.70;105262;1270;61259;-77
2022/03/04 04:41:14;;;;;;;53.20;34.80;;;;;;;-0.90;80.19;99103.70;105269;1270;61267;-77
2022/03/04 04:43:41;;;;;;;49.00;33.70;;;;;;;-0.91;80.08;99107.89;105447;1270;61177;-77
2022/03/04 04:46:08;;;;;;;54.30;33.60;;;;;;;-0.91;80.17;99102.49;105342;1269;74407;-78
2022/03/04 04:48:35;;;;;;;50.30;33.00;;;;;;;-0.90;80.13;99105.61;105305;1269;70962;-76
2022/03/04 04:51:01;;;;;;;65.10;40.70;;;;;;;-0.90;80.17;99108.23;105263;1270;61284;-77
2022/03/04 04:53:28;;;;;;;65.80;40.80;;;;;;;-0.90;80.24;99108.40;105299;1270;61256;-77
2022/03/04 04:55:55;;;;;;;55.50;34.80;;;;;;;-0.89;80.13;99111.89;105315;1270;61293;-76
2022/03/04 04:58:21;;;;;;;50.70;32.90;;;;;;;-0.87;80.19;99104.36;105320;1270;75852;-76
2022/03/04 05:00:53;;;;;;;48.50;33.10;;;;;;;-0.86;80.21;99109.23;105337;1270;69201;-77
2022/03/04 05:03:27;;;;;;;51.30;34.60;;;;;;;-0.86;80.15;99109.58;105287;1270;74276;-77
2022/03/04 05:05:55;;;;;;;53.10;33.60;;;;;;;-0.86;80.25;99112.36;105342;1270;61331;-77
2022/03/04 05:08:24;;;;;;;53.30;35.90;;;;;;;-0.86;80.30;99109.58;105121;1270;61177;-78
2022/03/04 05:10:51;;;;;;;49.10;33.00;;;;;;;-0.86;80.31;99113.23;105254;1271;73356;-77
2022/03/04 05:13:17;;;;;;;53.00;34.50;;;;;;;-0.85;80.32;99113.56;105352;1270;61272;-76
2022/03/04 05:15:43;;;;;;;54.20;34.20;;;;;;;-0.85;80.44;99113.20;105149;1270;61279;-76
2022/03/04 05:18:10;;;;;;;58.20;37.10;;;;;;;-0.85;80.54;99110.40;105386;1270;61226;-77
2022/03/04 05:20:37;;;;;;;55.40;36.00;;;;;;;-0.84;80.45;99112.66;105477;1270;61138;-75
2022/03/04 05:23:04;;;;;;;54.10;34.70;;;;;;;-0.82;80.42;99111.39;105214;1271;75790;-78
2022/03/04 05:25:33;;;;;;;54.60;34.40;;;;;;;-0.81;80.57;99108.42;105387;1270;68121;-77
2022/03/04 05:28:00;;;;;;;52.80;34.30;;;;;;;-0.80;80.63;99111.00;105752;1270;74179;-77
2022/03/04 05:30:26;;;;;;;57.50;35.20;;;;;;;-0.80;80.74;99115.19;105859;1270;61350;-76
2022/03/04 05:32:53;;;;;;;57.60;36.10;;;;;;;-0.80;80.73;99113.64;106438;1270;61143;-75
2022/03/04 05:35:19;;;;;;;53.90;34.20;;;;;;;-0.80;80.57;99119.89;107517;1270;61073;-76
2022/03/04 05:37:46;;;;;;;59.60;37.70;;;;;;;-0.80;80.69;99122.36;107007;1270;1002618;-76
2022/03/04 05:40:13;;;;;;;58.70;37.30;;;;;;;-0.78;80.76;99125.45;107028;1270;1003244;-77
2022/03/04 05:42:39;;;;;;;65.80;39.70;;;;;;;-0.77;80.72;99125.61;106202;1270;1003695;-76
2022/03/04 05:45:06;;;;;;;64.50;39.60;;;;;;;-0.75;80.95;99130.11;105403;1270;61166;-76
2022/03/04 05:47:33;;;;;;;62.60;38.90;;;;;;;-0.74;80.94;99128.52;105374;1270;76570;-77
2022/03/04 05:49:59;;;;;;;64.90;40.00;;;;;;;-0.73;81.12;99129.72;105302;1270;61279;-79
2022/03/04 05:52:26;;;;;;;68.90;41.10;;;;;;;-0.72;81.15;99134.05;105320;1270;73812;-79
2022/03/04 05:54:52;;;;;;;71.30;42.00;;;;;;;-0.71;81.28;99136.13;105282;1270;61365;-78
2022/03/04 05:57:19;;;;;;;71.20;42.90;;;;;;;-0.69;81.23;99137.32;105280;1270;61371;-76
2022/03/04 05:59:45;;;;;;;62.90;38.90;;;;;;;-0.68;81.35;99142.36;105254;1270;61351;-77
2022/03/04 06:02:12;;;;;;;64.00;39.60;;;;;;;-0.67;81.32;99138.32;105243;1269;61236;-77
2022/03/04 06:04:38;;;;;;;71.60;43.50;;;;;;;-0.65;81.42;99140.55;105282;1270;61337;-78
2022/03/04 06:07:05;;;;;;;61.30;39.80;;;;;;;-0.63;81.44;99140.70;104966;1270;61548;-78
2022/03/04 06:09:32;;;;;;;71.50;45.30;;;;;;;-0.61;81.61;99144.84;105297;1270;61437;-77
2022/03/04 06:11:59;;;;;;;67.40;42.00;;;;;;;-0.59;81.69;99148.46;105318;1270;76178;-77
2022/03/04 06:14:25;;;;;;;68.70;41.40;;;;;;;-0.56;81.77;99147.72;105255;1270;61239;-78
2022/03/04 06:16:52;;;;;;;67.20;41.20;;;;;;;-0.54;81.92;99148.38;105265;1270;61384;-77
2022/03/04 06:19:19;;;;;;;67.10;40.60;;;;;;;-0.53;81.90;99149.21;105291;1270;61414;-76
2022/03/04 06:21:45;;;;;;;62.70;38.50;;;;;;;-0.50;81.86;99149.52;105264;1270;61259;-77
2022/03/04 06:24:12;;;;;;;68.70;42.10;;;;;;;-0.47;82.19;99152.77;105263;1270;61356;-76
2022/03/04 06:26:38;;;;;;;63.20;39.80;;;;;;;-0.47;82.14;99159.23;105262;1270;61300;-77
2022/03/04 06:29:05;;;;;;;70.60;42.20;;;;;;;-0.45;82.34;99159.54;104990;1270;61260;-76
2022/03/04 06:31:31;;;;;;;65.40;41.10;;;;;;;-0.44;82.37;99161.27;105235;1270;61179;-78
2022/03/04 06:33:58;;;;;;;67.40;41.40;;;;;;;-0.43;82.42;99168.06;105247;1270;61276;-77
2022/03/04 06:36:24;;;;;;;71.10;42.80;;;;;;;-0.43;82.59;99175.40;104527;1269;1003060;-78
2022/03/04 06:38:51;;;;;;;68.40;39.40;;;;;;;-0.44;82.64;99178.36;105292;1269;61313;-78
2022/03/04 06:41:17;;;;;;;67.40;40.40;;;;;;;-0.43;82.83;99175.03;105293;1270;61375;-76
2022/03/04 06:43:45;;;;;;;71.50;44.10;;;;;;;-0.42;82.79;99177.45;105042;1272;61413;-76
2022/03/04 06:46:11;;;;;;;63.20;39.80;;;;;;;-0.39;82.81;99176.17;105246;1270;61305;-77
2022/03/04 06:48:38;;;;;;;69.70;42.30;;;;;;;-0.38;82.79;99180.16;105274;1269;61318;-77
2022/03/04 06:51:04;;;;;;;81.90;47.50;;;;;;;-0.37;82.98;99181.90;105229;1270;61372;-78
2022/03/04 06:53:31;;;;;;;80.40;46.30;;;;;;;-0.36;82.97;99181.02;104966;1271;61577;-75
2022/03/04 06:55:58;;;;;;;82.40;45.80;;;;;;;-0.36;83.03;99179.78;105243;1270;61246;-77
2022/03/04 06:58:25;;;;;;;76.20;45.30;;;;;;;-0.33;83.13;99179.20;105291;1270;61845;-77
2022/03/04 07:00:52;;;;;;;71.20;42.60;;;;;;;-0.30;83.04;99180.19;105306;1269;76047;-77
2022/03/04 07:03:19;;;;;;;69.10;41.20;;;;;;;-0.26;83.21;99177.83;105257;1270;69957;-77
2022/03/04 07:05:46;;;;;;;76.60;48.30;;;;;;;-0.22;83.13;99178.98;105274;1270;71858;-78
2022/03/04 07:08:13;;;;;;;69.40;40.90;;;;;;;-0.18;83.22;99183.45;105227;1270;61382;-77
2022/03/04 07:10:43;;;;;;;66.10;41.70;;;;;;;-0.16;83.29;99184.98;104344;1271;1003191;-77
2022/03/04 07:13:11;;;;;;;76.60;49.30;;;;;;;-0.16;83.41;99185.30;105273;1270;76352;-77
2022/03/04 07:15:38;;;;;;;80.50;47.80;;;;;;;-0.15;83.42;99190.54;105559;1270;69166;-78
2022/03/04 07:18:05;;;;;;;74.80;44.40;;;;;;;-0.14;83.20;99191.20;105331;1270;72649;-77
2022/03/04 07:20:32;;;;;;;74.10;40.90;;;;;;;-0.10;83.16;99188.16;105273;1269;61214;-74
2022/03/04 07:22:58;;;;;;;70.90;42.70;;;;;;;-0.02;83.21;99188.89;105294;1270;61168;-78
2022/03/04 07:25:25;;;;;;;76.30;46.40;;;;;;;0.05;83.18;99188.02;105239;1270;61340;-76
2022/03/04 07:27:51;;;;;;;75.00;43.50;;;;;;;0.11;83.17;99189.65;105231;1270;61369;-77
2022/03/04 07:30:18;;;;;;;76.40;45.30;;;;;;;0.17;83.07;99190.02;105281;1270;73331;-76
2022/03/04 07:32:46;;;;;;;72.70;46.00;;;;;;;0.22;83.19;99193.24;105039;1271;61350;-77
2022/03/04 07:35:13;;;;;;;72.10;43.10;;;;;;;0.27;82.88;99191.75;105319;1270;61301;-77
2022/03/04 07:37:42;;;;;;;70.90;43.60;;;;;;;0.33;82.93;99194.24;105318;1270;76385;-77
2022/03/04 07:40:12;;;;;;;75.40;44.70;;;;;;;0.37;82.83;99200.41;105611;1270;70066;-76
2022/03/04 07:42:39;;;;;;;74.70;44.30;;;;;;;0.40;82.89;99202.10;105530;1270;74388;-75
2022/03/04 07:45:08;;;;;;;77.80;46.30;;;;;;;0.41;82.96;99202.60;105534;1270;61375;-77
2022/03/04 07:47:36;;;;;;;65.80;41.90;;;;;;;0.45;83.00;99200.08;106010;1270;61266;-77
2022/03/04 07:50:07;;;;;;;65.80;42.40;;;;;;;0.45;82.91;99200.09;105761;1271;75384;-77
2022/03/04 07:52:35;;;;;;;73.90;44.20;;;;;;;0.45;82.96;99202.17;105106;1270;69179;-79
2022/03/04 07:55:03;;;;;;;61.90;39.40;;;;;;;0.49;82.92;99204.89;105319;1270;73303;-77
2022/03/04 07:57:33;;;;;;;72.40;43.40;;;;;;;0.54;82.95;99202.30;105116;1271;61414;-76
2022/03/04 08:00:00;;;;;;;66.20;40.80;;;;;;;0.57;82.96;99201.02;105337;1269;61620;-77
2022/03/04 08:02:26;;;;;;;73.00;45.70;;;;;;;0.61;82.99;99194.80;105313;1270;75938;-77
2022/03/04 08:04:53;;;;;;;69.00;43.90;;;;;;;0.69;83.02;99195.32;105327;1270;61295;-77
2022/03/04 08:07:19;;;;;;;66.30;43.10;;;;;;;0.80;82.79;99196.98;105313;1270;61335;-77
2022/03/04 08:09:46;;;;;;;61.00;40.10;;;;;;;0.86;82.72;99200.14;104985;1273;61269;-77
2022/03/04 08:12:12;;;;;;;63.20;40.30;;;;;;;0.92;82.74;99197.04;105376;1270;61341;-78
2022/03/04 08:14:39;;;;;;;64.10;39.70;;;;;;;1.00;82.61;99202.10;105345;1270;61224;-77
2022/03/04 08:17:05;;;;;;;68.50;43.50;;;;;;;1.04;82.46;99206.20;105347;1269;61273;-77
2022/03/04 08:19:33;;;;;;;63.00;42.60;;;;;;;1.06;82.35;99203.00;105408;1270;61356;-78
2022/03/04 08:21:59;;;;;;;65.90;41.70;;;;;;;1.09;82.28;99203.63;105352;1270;61306;-78
2022/03/04 08:24:26;;;;;;;69.70;41.80;;;;;;;1.14;82.24;99207.17;105322;1270;61198;-77
2022/03/04 08:26:52;;;;;;;66.60;44.70;;;;;;;1.16;82.26;99211.15;105325;1270;61294;-77
2022/03/04 08:29:19;;;;;;;69.50;44.40;;;;;;;1.18;82.27;99210.77;105342;1270;61367;-76
2022/03/04 08:31:45;;;;;;;69.10;41.90;;;;;;;1.25;82.24;99211.44;105316;1270;61257;-79
2022/03/04 08:34:12;;;;;;;70.40;43.40;;;;;;;1.29;82.21;99208.88;105299;1270;61242;-78
2022/03/04 08:36:38;;;;;;;68.10;43.20;;;;;;;1.27;82.11;99215.23;105298;1270;61160;-78
2022/03/04 08:39:05;;;;;;;77.00;46.90;;;;;;;1.26;82.19;99214.21;105299;1270;61478;-77
2022/03/04 08:41:34;;;;;;;68.80;41.90;;;;;;;1.21;82.21;99213.47;105512;1270;69730;-77
2022/03/04 08:44:02;;;;;;;69.40;42.90;;;;;;;1.15;82.39;99214.48;105471;1270;73420;-77
2022/03/04 08:46:28;;;;;;;70.90;42.00;;;;;;;1.10;82.49;99218.47;105349;1270;61375;-78
2022/03/04 08:48:55;;;;;;;64.00;39.20;;;;;;;1.09;82.57;99217.45;105114;1271;61383;-77
2022/03/04 08:51:24;;;;;;;67.20;41.40;;;;;;;1.11;82.65;99217.04;105301;1270;61340;-77
2022/03/04 08:53:52;;;;;;;65.10;40.70;;;;;;;1.12;82.69;99216.86;105347;1270;68656;-77
2022/03/04 08:56:19;;;;;;;68.30;42.10;;;;;;;1.12;82.68;99220.01;105368;1270;74368;-77
2022/03/04 08:58:46;;;;;;;60.20;39.60;;;;;;;1.13;82.79;99220.15;105314;1271;61353;-78
2022/03/04 09:01:12;;;;;;;63.10;39.70;;;;;;;1.18;82.81;99220.38;105297;1270;61821;-79
2022/03/04 09:03:39;;;;;;;62.70;41.60;;;;;;;1.26;82.64;99223.16;105338;1270;75318;-78
2022/03/04 09:06:05;;;;;;;62.90;39.50;;;;;;;1.32;82.54;99228.40;105308;1270;70254;-80
2022/03/04 09:08:32;;;;;;;61.30;38.40;;;;;;;1.41;82.52;99227.46;105045;1270;74615;-78
2022/03/04 09:10:59;;;;;;;59.60;39.60;;;;;;;1.52;82.37;99228.05;105325;1270;61280;-77
2022/03/04 09:13:26;;;;;;;64.10;41.90;;;;;;;1.57;82.33;99233.89;105352;1270;61268;-81
2022/03/04 09:15:52;;;;;;;55.80;37.80;;;;;;;1.60;82.37;99234.33;105353;1270;61582;-79
2022/03/04 09:18:19;;;;;;;61.40;42.80;;;;;;;1.63;82.61;99235.81;105326;1270;69565;-79
2022/03/04 09:20:45;;;;;;;59.80;38.70;;;;;;;1.63;82.60;99235.84;105320;1270;61378;-78
2022/03/04 09:23:12;;;;;;;64.30;41.90;;;;;;;1.64;82.55;99234.73;105333;1271;61381;-76
2022/03/04 09:25:38;;;;;;;68.40;44.00;;;;;;;1.68;82.54;99236.91;105304;1270;61278;-77
2022/03/04 09:28:05;;;;;;;64.50;40.90;;;;;;;1.70;82.27;99237.23;105293;1270;61376;-77
2022/03/04 09:30:33;;;;;;;65.40;40.70;;;;;;;1.62;82.22;99240.94;105286;1270;61135;-76
2022/03/04 09:33:00;;;;;;;59.10;39.10;;;;;;;1.60;82.34;99242.91;105301;1270;73216;-75
2022/03/04 09:35:26;;;;;;;60.90;38.60;;;;;;;1.61;82.42;99245.69;105300;1269;61259;-77
2022/03/04 09:37:53;;;;;;;71.50;43.30;;;;;;;1.58;82.62;99248.05;105335;1270;61301;-75
2022/03/04 09:40:19;;;;;;;69.20;44.40;;;;;;;1.54;82.81;99253.05;105316;1270;61368;-78
2022/03/04 09:42:46;;;;;;;62.60;41.40;;;;;;;1.50;83.03;99258.39;105101;1271;61447;-78
2022/03/04 09:45:12;;;;;;;65.50;43.30;;;;;;;1.43;82.96;99255.45;105304;1271;74458;-76
2022/03/04 09:47:42;;;;;;;65.40;41.30;;;;;;;1.39;83.12;99256.77;105306;1270;61203;-77
2022/03/04 09:50:09;;;;;;;71.50;42.80;;;;;;;1.36;83.22;99257.73;105758;1270;61248;-77
2022/03/04 09:52:36;;;;;;;62.70;40.40;;;;;;;1.36;83.51;99252.11;105386;1270;74902;-76
2022/03/04 09:55:03;;;;;;;64.80;42.30;;;;;;;1.42;83.75;99251.97;105458;1270;70451;-78
2022/03/04 09:57:29;;;;;;;69.10;42.70;;;;;;;1.43;83.59;99255.97;105767;1270;72648;-77
2022/03/04 09:59:56;;;;;;;73.20;46.10;;;;;;;1.42;83.78;99254.06;105659;1270;61293;-77
2022/03/04 10:02:25;;;;;;;69.80;43.10;;;;;;;1.44;84.05;99252.97;105417;1270;61376;-76
2022/03/04 10:04:59;;;;;;;81.30;48.10;;;;;;;1.52;83.99;99251.52;105305;1270;76328;-77
2022/03/04 10:07:26;;;;;;;71.90;45.80;;;;;;;1.67;84.00;99253.23;105455;1270;70375;-77
2022/03/04 10:09:53;;;;;;;68.70;42.00;;;;;;;1.78;83.90;99258.73;105296;1270;74327;-77
2022/03/04 10:12:20;;;;;;;71.90;46.40;;;;;;;1.84;83.62;99257.33;105302;1270;61356;-78
2022/03/04 10:15:07;;;;;;;67.00;45.70;;;;;;;1.88;83.52;99256.17;103876;1270;1003703;-77
2022/03/04 10:17:37;;;;;;;83.80;52.60;;;;;;;1.87;83.55;99258.30;104620;1270;1002956;-81
2022/03/04 10:20:12;;;;;;;71.70;47.10;;;;;;;1.87;83.66;99257.95;105397;1270;68683;-78
2022/03/04 10:22:45;;;;;;;69.20;45.00;;;;;;;1.85;83.57;99259.24;105332;1271;71859;-80
2022/03/04 10:25:22;;;;;;;70.20;44.70;;;;;;;1.86;83.61;99258.34;103657;1271;1003881;-79
2022/03/04 10:27:49;;;;;;;67.60;43.40;;;;;;;1.88;83.55;99256.34;105292;1270;61965;-78
2022/03/04 10:30:17;;;;;;;66.00;42.30;;;;;;;1.88;83.48;99261.77;105294;1270;61161;-78
2022/03/04 10:32:43;;;;;;;68.80;43.50;;;;;;;1.88;83.47;99260.38;105275;1271;70203;-80
2022/03/04 10:35:14;;;;;;;65.60;43.80;;;;;;;1.87;83.67;99260.23;105352;1271;61300;-80
2022/03/04 10:37:51;;;;;;;71.80;45.60;;;;;;;1.87;83.75;99256.38;105119;1271;61398;-79
2022/03/04 10:40:23;;;;;;;75.20;48.80;;;;;;;1.91;83.62;99258.36;105386;1270;62135;-80
2022/03/04 10:42:56;;;;;;;72.70;47.20;;;;;;;1.96;83.68;99262.09;105383;1270;75948;-80
2022/03/04 10:45:22;;;;;;;69.30;45.80;;;;;;;2.02;83.66;99261.56;105337;1270;67674;-80
2022/03/04 10:47:50;;;;;;;63.30;40.40;;;;;;;2.07;83.44;99259.52;105015;1273;61155;-78
2022/03/04 10:50:44;;;;;;;66.90;43.60;;;;;;;2.07;83.28;99265.98;105330;1271;61362;-80
2022/03/04 10:53:19;;;;;;;62.30;41.40;;;;;;;2.08;83.24;99259.98;105003;1276;61825;-81
2022/03/04 10:55:57;;;;;;;67.80;44.70;;;;;;;2.10;83.02;99260.10;104985;1275;75643;-80
2022/03/04 10:58:28;;;;;;;67.70;44.40;;;;;;;2.16;82.83;99256.42;104979;1277;68363;-78
2022/03/04 11:01:02;;;;;;;64.90;42.80;;;;;;;2.35;82.84;99252.58;104951;1274;72277;-79
2022/03/04 11:03:34;;;;;;;62.80;40.60;;;;;;;2.63;82.62;99248.21;104941;1274;61324;-79
2022/03/04 11:06:07;;;;;;;69.60;44.00;;;;;;;2.80;81.99;99249.23;105093;1276;61629;-80
2022/03/04 11:08:35;;;;;;;60.20;40.10;;;;;;;2.93;81.54;99246.39;104996;1275;75483;-78
2022/03/04 11:11:04;;;;;;;67.10;45.20;;;;;;;3.01;81.28;99244.55;104784;1275;69574;-80
2022/03/04 11:13:33;;;;;;;63.50;44.20;;;;;;;3.11;81.23;99243.89;105212;1275;73370;-79